Terminal Aerodrome Forecast
Issued by NWS

Home | Current Version | Previous Version | Graphics & Text | Print | Product List | Glossary On
Versions: 1 2 3 4 5 6 7 8 9 10 11 12 13 14
333
FTUS43 KUNR 191720
TAFGCC
TAF
KGCC 191720Z 1918/2018 24015G25KT P6SM SCT250
     FM192100 27010KT P6SM SCT250
     FM201200 29006KT 5SM -SN OVC010=

USA.gov is the U.S. government's official web portal to all federal, state and local government web resources and services.